sensor_id;sensor_type;location;lat;lon;timestamp;pressure;altitude;pressure_sealevel;temperature;humidity
60820;BME280;46641;48.904;9.126;2023-02-22T00:01:05;98524.16;;;13.50;61.43
60820;BME280;46641;48.904;9.126;2023-02-22T00:06:15;98514.13;;;13.45;60.57
60820;BME280;46641;48.904;9.126;2023-02-22T00:11:07;98515.47;;;13.41;61.69
60820;BME280;46641;48.904;9.126;2023-02-22T00:15:58;98514.81;;;13.39;61.32
60820;BME280;46641;48.904;9.126;2023-02-22T00:20:49;98510.84;;;13.35;61.79
60820;BME280;46641;48.904;9.126;2023-02-22T00:25:39;98497.06;;;13.33;61.54
60820;BME280;46641;48.904;9.126;2023-02-22T00:30:30;98498.22;;;13.30;61.79
60820;BME280;46641;48.904;9.126;2023-02-22T00:35:24;98493.47;;;13.26;61.84
60820;BME280;46641;48.904;9.126;2023-02-22T00:40:18;98489.47;;;13.22;61.47
60820;BME280;46641;48.904;9.126;2023-02-22T00:45:08;98494.09;;;13.20;61.82
60820;BME280;46641;48.904;9.126;2023-02-22T00:49:59;98491.78;;;13.17;61.78
60820;BME280;46641;48.904;9.126;2023-02-22T00:54:49;98496.56;;;13.13;61.75
60820;BME280;46641;48.904;9.126;2023-02-22T00:59:39;98492.44;;;13.10;61.70
60820;BME280;46641;48.904;9.126;2023-02-22T01:04:30;98478.00;;;13.06;61.70
60820;BME280;46641;48.904;9.126;2023-02-22T01:09:20;98474.84;;;13.03;61.83
60820;BME280;46641;48.904;9.126;2023-02-22T01:14:11;98473.41;;;13.00;62.10
60820;BME280;46641;48.904;9.126;2023-02-22T01:19:02;98455.00;;;13.00;61.85
60820;BME280;46641;48.904;9.126;2023-02-22T01:23:53;98465.84;;;12.97;62.00
60820;BME280;46641;48.904;9.126;2023-02-22T01:28:44;98463.69;;;12.93;61.97
60820;BME280;46641;48.904;9.126;2023-02-22T01:33:34;98463.88;;;12.91;61.91
60820;BME280;46641;48.904;9.126;2023-02-22T01:38:24;98458.94;;;12.88;62.14
60820;BME280;46641;48.904;9.126;2023-02-22T01:48:19;98448.09;;;12.83;61.25
60820;BME280;46641;48.904;9.126;2023-02-22T01:53:14;98447.59;;;12.79;61.99
60820;BME280;46641;48.904;9.126;2023-02-22T01:58:06;98440.84;;;12.77;62.23
60820;BME280;46641;48.904;9.126;2023-02-22T02:03:04;98434.16;;;12.74;61.72
60820;BME280;46641;48.904;9.126;2023-02-22T02:07:57;98416.91;;;12.72;62.43
60820;BME280;46641;48.904;9.126;2023-02-22T02:12:49;98418.88;;;12.70;62.48
60820;BME280;46641;48.904;9.126;2023-02-22T02:17:40;98417.56;;;12.66;62.27
60820;BME280;46641;48.904;9.126;2023-02-22T02:33:34;98402.28;;;12.53;61.75
60820;BME280;46641;48.904;9.126;2023-02-22T02:39:04;98387.84;;;12.49;62.01
60820;BME280;46641;48.904;9.126;2023-02-22T02:44:02;98393.09;;;12.49;61.87
60820;BME280;46641;48.904;9.126;2023-02-22T02:49:00;98383.72;;;12.46;62.02
60820;BME280;46641;48.904;9.126;2023-02-22T02:53:53;98383.06;;;12.44;62.82
60820;BME280;46641;48.904;9.126;2023-02-22T02:58:47;98388.63;;;12.41;62.36
60820;BME280;46641;48.904;9.126;2023-02-22T03:09:37;98375.19;;;12.36;62.13
60820;BME280;46641;48.904;9.126;2023-02-22T03:19:37;98367.66;;;12.33;62.13
60820;BME280;46641;48.904;9.126;2023-02-22T03:24:36;98365.16;;;12.31;62.88
60820;BME280;46641;48.904;9.126;2023-02-22T03:29:32;98354.19;;;12.28;62.85
60820;BME280;46641;48.904;9.126;2023-02-22T03:34:27;98362.88;;;12.28;62.83
60820;BME280;46641;48.904;9.126;2023-02-22T03:39:19;98357.78;;;12.27;63.13
60820;BME280;46641;48.904;9.126;2023-02-22T03:44:15;98352.88;;;12.24;62.44
60820;BME280;46641;48.904;9.126;2023-02-22T03:54:09;98358.63;;;12.19;62.89
60820;BME280;46641;48.904;9.126;2023-02-22T03:59:07;98358.13;;;12.15;63.12
60820;BME280;46641;48.904;9.126;2023-02-22T04:03:57;98348.75;;;12.13;63.26
60820;BME280;46641;48.904;9.126;2023-02-22T04:08:49;98350.56;;;12.12;63.42
60820;BME280;46641;48.904;9.126;2023-02-22T04:13:39;98348.91;;;12.11;63.24
60820;BME280;46641;48.904;9.126;2023-02-22T04:18:30;98356.13;;;12.09;63.23
60820;BME280;46641;48.904;9.126;2023-02-22T04:23:20;98343.16;;;12.08;63.20
60820;BME280;46641;48.904;9.126;2023-02-22T04:28:11;98348.09;;;12.03;63.70
60820;BME280;46641;48.904;9.126;2023-02-22T04:33:01;98340.53;;;12.00;63.39
60820;BME280;46641;48.904;9.126;2023-02-22T04:37:51;98331.19;;;11.97;63.53
60820;BME280;46641;48.904;9.126;2023-02-22T04:42:42;98343.31;;;11.98;63.23
60820;BME280;46641;48.904;9.126;2023-02-22T04:47:33;98336.75;;;11.94;63.65
60820;BME280;46641;48.904;9.126;2023-02-22T04:52:23;98332.63;;;11.91;63.69
60820;BME280;46641;48.904;9.126;2023-02-22T04:57:14;98330.19;;;11.90;63.58
60820;BME280;46641;48.904;9.126;2023-02-22T05:02:04;98336.25;;;11.90;63.57
60820;BME280;46641;48.904;9.126;2023-02-22T05:06:55;98335.75;;;11.87;63.90
60820;BME280;46641;48.904;9.126;2023-02-22T05:11:45;98341.28;;;11.84;63.61
60820;BME280;46641;48.904;9.126;2023-02-22T05:16:35;98326.69;;;11.81;63.74
60820;BME280;46641;48.904;9.126;2023-02-22T05:21:26;98334.72;;;11.80;63.78
60820;BME280;46641;48.904;9.126;2023-02-22T05:26:16;98330.44;;;11.79;63.95
60820;BME280;46641;48.904;9.126;2023-02-22T05:31:08;98327.81;;;11.79;64.11
60820;BME280;46641;48.904;9.126;2023-02-22T05:35:58;98325.38;;;11.77;63.99
60820;BME280;46641;48.904;9.126;2023-02-22T05:40:48;98327.19;;;11.77;63.69
60820;BME280;46641;48.904;9.126;2023-02-22T05:45:39;98323.88;;;11.75;63.68
60820;BME280;46641;48.904;9.126;2023-02-22T05:50:29;98321.56;;;11.72;63.56
60820;BME280;46641;48.904;9.126;2023-02-22T05:55:21;98316.50;;;11.70;64.07
60820;BME280;46641;48.904;9.126;2023-02-22T06:00:24;98315.66;;;11.69;63.69
60820;BME280;46641;48.904;9.126;2023-02-22T06:05:15;98314.19;;;11.67;64.00
60820;BME280;46641;48.904;9.126;2023-02-22T06:10:05;98320.56;;;11.64;64.21
60820;BME280;46641;48.904;9.126;2023-02-22T06:14:56;98319.25;;;11.60;64.17
60820;BME280;46641;48.904;9.126;2023-02-22T06:19:46;98318.28;;;11.61;64.12
60820;BME280;46641;48.904;9.126;2023-02-22T06:24:37;98329.75;;;11.60;64.06
60820;BME280;46641;48.904;9.126;2023-02-22T06:29:28;98334.13;;;11.60;64.24
60820;BME280;46641;48.904;9.126;2023-02-22T06:34:19;98337.75;;;11.59;63.92
60820;BME280;46641;48.904;9.126;2023-02-22T06:39:10;98343.97;;;11.58;64.23
60820;BME280;46641;48.904;9.126;2023-02-22T06:44:01;98353.78;;;11.56;64.23
60820;BME280;46641;48.904;9.126;2023-02-22T06:48:51;98346.09;;;11.54;64.11
60820;BME280;46641;48.904;9.126;2023-02-22T06:53:41;98356.06;;;11.51;64.29
60820;BME280;46641;48.904;9.126;2023-02-22T06:58:31;98353.59;;;11.49;64.33
60820;BME280;46641;48.904;9.126;2023-02-22T07:03:22;98351.97;;;11.48;64.21
60820;BME280;46641;48.904;9.126;2023-02-22T07:08:12;98360.78;;;11.47;64.51
60820;BME280;46641;48.904;9.126;2023-02-22T07:13:03;98353.91;;;11.46;64.19
60820;BME280;46641;48.904;9.126;2023-02-22T07:17:55;98359.16;;;11.46;64.29
60820;BME280;46641;48.904;9.126;2023-02-22T07:22:46;98367.81;;;11.46;64.52
60820;BME280;46641;48.904;9.126;2023-02-22T07:27:38;98367.00;;;11.46;64.33
60820;BME280;46641;48.904;9.126;2023-02-22T07:32:28;98369.63;;;11.46;64.43
60820;BME280;46641;48.904;9.126;2023-02-22T07:37:19;98376.84;;;11.44;64.78
60820;BME280;46641;48.904;9.126;2023-02-22T07:42:10;98382.09;;;11.44;64.63
60820;BME280;46641;48.904;9.126;2023-02-22T07:47:00;98383.72;;;11.45;64.56
60820;BME280;46641;48.904;9.126;2023-02-22T07:51:51;98387.97;;;11.46;64.62
60820;BME280;46641;48.904;9.126;2023-02-22T07:56:46;98390.59;;;11.46;64.16
60820;BME280;46641;48.904;9.126;2023-02-22T08:01:36;98386.47;;;11.43;64.49
60820;BME280;46641;48.904;9.126;2023-02-22T08:06:27;98384.72;;;11.44;64.83
60820;BME280;46641;48.904;9.126;2023-02-22T08:11:19;98383.84;;;11.43;64.81
60820;BME280;46641;48.904;9.126;2023-02-22T08:16:09;98384.53;;;11.45;64.75
60820;BME280;46641;48.904;9.126;2023-02-22T08:20:59;98370.63;;;11.45;64.90
60820;BME280;46641;48.904;9.126;2023-02-22T08:25:50;98369.63;;;11.46;64.95
60820;BME280;46641;48.904;9.126;2023-02-22T08:30:41;98377.19;;;11.49;64.93
60820;BME280;46641;48.904;9.126;2023-02-22T08:35:32;98367.69;;;11.48;64.85
60820;BME280;46641;48.904;9.126;2023-02-22T08:40:24;98370.13;;;11.50;64.88
60820;BME280;46641;48.904;9.126;2023-02-22T08:45:16;98369.00;;;11.52;64.87
60820;BME280;46641;48.904;9.126;2023-02-22T08:50:10;98374.25;;;11.52;64.85
60820;BME280;46641;48.904;9.126;2023-02-22T08:55:04;98363.63;;;11.54;65.05
60820;BME280;46641;48.904;9.126;2023-02-22T08:59:55;98369.50;;;11.56;65.05
60820;BME280;46641;48.904;9.126;2023-02-22T09:04:46;98372.50;;;11.61;64.90
60820;BME280;46641;48.904;9.126;2023-02-22T09:09:37;98366.78;;;11.65;64.82
60820;BME280;46641;48.904;9.126;2023-02-22T09:14:27;98364.84;;;11.76;64.84
60820;BME280;46641;48.904;9.126;2023-02-22T09:19:17;98362.25;;;11.84;64.65
60820;BME280;46641;48.904;9.126;2023-02-22T09:24:08;98356.41;;;11.90;64.86
60820;BME280;46641;48.904;9.126;2023-02-22T09:28:58;98354.78;;;11.97;64.68
60820;BME280;46641;48.904;9.126;2023-02-22T09:33:48;98358.41;;;12.04;64.63
60820;BME280;46641;48.904;9.126;2023-02-22T09:38:39;98341.72;;;12.13;64.89
60820;BME280;46641;48.904;9.126;2023-02-22T09:48:25;98334.69;;;12.55;64.01
60820;BME280;46641;48.904;9.126;2023-02-22T10:03:27;98326.13;;;12.94;63.08
60820;BME280;46641;48.904;9.126;2023-02-22T10:08:19;98332.97;;;13.03;63.36
60820;BME280;46641;48.904;9.126;2023-02-22T10:18:35;98325.56;;;13.15;63.91
60820;BME280;46641;48.904;9.126;2023-02-22T10:28:53;98323.28;;;13.28;64.70
60820;BME280;46641;48.904;9.126;2023-02-22T10:33:47;98314.03;;;13.40;65.22
60820;BME280;46641;48.904;9.126;2023-02-22T10:38:46;98320.38;;;13.54;65.36
60820;BME280;46641;48.904;9.126;2023-02-22T10:43:40;98312.41;;;13.70;65.55
60820;BME280;46641;48.904;9.126;2023-02-22T10:48:35;98308.41;;;13.83;64.95
60820;BME280;46641;48.904;9.126;2023-02-22T10:53:28;98308.53;;;13.89;65.72
60820;BME280;46641;48.904;9.126;2023-02-22T10:58:19;98297.59;;;14.00;65.69
60820;BME280;46641;48.904;9.126;2023-02-22T11:03:18;98297.69;;;14.15;64.69
60820;BME280;46641;48.904;9.126;2023-02-22T11:08:15;98297.91;;;14.29;64.67
60820;BME280;46641;48.904;9.126;2023-02-22T11:13:24;98295.84;;;14.39;64.48
60820;BME280;46641;48.904;9.126;2023-02-22T11:18:27;98297.25;;;14.49;64.40
60820;BME280;46641;48.904;9.126;2023-02-22T11:23:19;98290.78;;;14.60;65.08
60820;BME280;46641;48.904;9.126;2023-02-22T11:28:27;98287.22;;;14.68;64.19
60820;BME280;46641;48.904;9.126;2023-02-22T11:33:24;98277.81;;;14.73;65.25
60820;BME280;46641;48.904;9.126;2023-02-22T11:38:24;98276.72;;;14.83;64.80
60820;BME280;46641;48.904;9.126;2023-02-22T11:43:16;98269.72;;;14.90;65.00
60820;BME280;46641;48.904;9.126;2023-02-22T11:48:18;98263.19;;;15.01;63.34
60820;BME280;46641;48.904;9.126;2023-02-22T11:53:42;98253.09;;;15.04;63.83
60820;BME280;46641;48.904;9.126;2023-02-22T12:09:10;98238.44;;;15.31;64.29
60820;BME280;46641;48.904;9.126;2023-02-22T12:19:26;98221.22;;;15.50;64.19
60820;BME280;46641;48.904;9.126;2023-02-22T12:24:23;98226.81;;;15.62;63.93
60820;BME280;46641;48.904;9.126;2023-02-22T12:29:30;98226.91;;;15.69;63.94
60820;BME280;46641;48.904;9.126;2023-02-22T12:34:28;98219.72;;;15.77;64.41
60820;BME280;46641;48.904;9.126;2023-02-22T12:39:38;98218.97;;;15.83;62.72
60820;BME280;46641;48.904;9.126;2023-02-22T12:44:33;98216.00;;;15.93;63.54
60820;BME280;46641;48.904;9.126;2023-02-22T12:49:47;98206.50;;;15.99;62.68
60820;BME280;46641;48.904;9.126;2023-02-22T12:54:58;98211.03;;;16.05;63.19
60820;BME280;46641;48.904;9.126;2023-02-22T13:00:01;98200.91;;;16.08;63.23
60820;BME280;46641;48.904;9.126;2023-02-22T13:04:53;98199.16;;;16.16;63.82
60820;BME280;46641;48.904;9.126;2023-02-22T13:09:56;98199.81;;;16.24;61.71
60820;BME280;46641;48.904;9.126;2023-02-22T13:20:26;98192.53;;;16.26;63.62
60820;BME280;46641;48.904;9.126;2023-02-22T13:25:29;98195.59;;;16.30;63.42
60820;BME280;46641;48.904;9.126;2023-02-22T13:30:37;98191.75;;;16.32;63.31
60820;BME280;46641;48.904;9.126;2023-02-22T13:36:04;98186.66;;;16.31;63.26
60820;BME280;46641;48.904;9.126;2023-02-22T13:51:32;98174.69;;;16.28;63.62
60820;BME280;46641;48.904;9.126;2023-02-22T13:56:26;98180.88;;;16.42;64.22
60820;BME280;46641;48.904;9.126;2023-02-22T14:01:36;98179.50;;;16.53;63.41
60820;BME280;46641;48.904;9.126;2023-02-22T14:06:38;98180.19;;;16.62;62.77
60820;BME280;46641;48.904;9.126;2023-02-22T14:16:25;98174.94;;;16.68;63.40
60820;BME280;46641;48.904;9.126;2023-02-22T14:21:21;98176.16;;;16.72;62.49
60820;BME280;46641;48.904;9.126;2023-02-22T14:26:24;98175.34;;;16.72;62.25
60820;BME280;46641;48.904;9.126;2023-02-22T14:31:18;98178.63;;;16.74;62.56
60820;BME280;46641;48.904;9.126;2023-02-22T14:36:09;98169.50;;;16.76;62.24
60820;BME280;46641;48.904;9.126;2023-02-22T14:41:01;98174.16;;;16.74;62.48
60820;BME280;46641;48.904;9.126;2023-02-22T14:45:54;98170.88;;;16.72;62.05
60820;BME280;46641;48.904;9.126;2023-02-22T14:50:52;98167.59;;;16.70;61.49
60820;BME280;46641;48.904;9.126;2023-02-22T15:00:41;98175.41;;;16.78;61.35
60820;BME280;46641;48.904;9.126;2023-02-22T15:05:36;98175.00;;;16.75;60.74
60820;BME280;46641;48.904;9.126;2023-02-22T15:10:41;98171.69;;;16.73;59.60
60820;BME280;46641;48.904;9.126;2023-02-22T15:15:32;98174.53;;;16.71;60.69
60820;BME280;46641;48.904;9.126;2023-02-22T15:20:23;98177.78;;;16.73;60.95
60820;BME280;46641;48.904;9.126;2023-02-22T15:25:14;98179.00;;;16.71;60.98
60820;BME280;46641;48.904;9.126;2023-02-22T15:30:17;98170.69;;;16.74;60.14
60820;BME280;46641;48.904;9.126;2023-02-22T15:35:29;98167.69;;;16.77;59.66
60820;BME280;46641;48.904;9.126;2023-02-22T15:40:20;98170.94;;;16.79;60.74
60820;BME280;46641;48.904;9.126;2023-02-22T15:45:16;98162.84;;;16.80;59.70
60820;BME280;46641;48.904;9.126;2023-02-22T15:50:20;98172.16;;;16.76;60.37
60820;BME280;46641;48.904;9.126;2023-02-22T15:55:15;98174.59;;;16.78;60.25
60820;BME280;46641;48.904;9.126;2023-02-22T16:00:18;98170.13;;;16.78;60.12
60820;BME280;46641;48.904;9.126;2023-02-22T16:05:11;98175.22;;;16.80;60.50
60820;BME280;46641;48.904;9.126;2023-02-22T16:10:03;98169.13;;;16.79;60.33
60820;BME280;46641;48.904;9.126;2023-02-22T16:14:58;98174.59;;;16.78;60.20
60820;BME280;46641;48.904;9.126;2023-02-22T16:19:48;98179.09;;;16.77;60.50
60820;BME280;46641;48.904;9.126;2023-02-22T16:24:39;98186.00;;;16.78;60.43
60820;BME280;46641;48.904;9.126;2023-02-22T16:29:30;98184.97;;;16.79;60.63
60820;BME280;46641;48.904;9.126;2023-02-22T16:34:20;98184.38;;;16.77;60.42
60820;BME280;46641;48.904;9.126;2023-02-22T16:39:28;98183.28;;;16.72;60.40
60820;BME280;46641;48.904;9.126;2023-02-22T16:44:19;98185.09;;;16.71;60.83
60820;BME280;46641;48.904;9.126;2023-02-22T16:49:11;98190.56;;;16.70;60.59
60820;BME280;46641;48.904;9.126;2023-02-22T16:54:01;98190.16;;;16.66;60.79
60820;BME280;46641;48.904;9.126;2023-02-22T16:58:52;98194.44;;;16.67;60.72
60820;BME280;46641;48.904;9.126;2023-02-22T17:03:43;98188.72;;;16.64;60.82
60820;BME280;46641;48.904;9.126;2023-02-22T17:08:33;98187.28;;;16.61;60.77
60820;BME280;46641;48.904;9.126;2023-02-22T17:13:25;98196.22;;;16.60;60.26
60820;BME280;46641;48.904;9.126;2023-02-22T17:18:17;98203.31;;;16.59;59.95
60820;BME280;46641;48.904;9.126;2023-02-22T17:23:11;98206.16;;;16.58;60.44
60820;BME280;46641;48.904;9.126;2023-02-22T17:28:02;98215.28;;;16.55;60.38
60820;BME280;46641;48.904;9.126;2023-02-22T17:32:52;98220.16;;;16.52;60.24
60820;BME280;46641;48.904;9.126;2023-02-22T17:37:46;98220.72;;;16.47;60.18
60820;BME280;46641;48.904;9.126;2023-02-22T17:42:36;98227.38;;;16.43;60.20
60820;BME280;46641;48.904;9.126;2023-02-22T17:47:27;98235.69;;;16.40;60.25
60820;BME280;46641;48.904;9.126;2023-02-22T17:52:17;98237.09;;;16.36;60.21
60820;BME280;46641;48.904;9.126;2023-02-22T17:57:07;98236.84;;;16.31;60.18
60820;BME280;46641;48.904;9.126;2023-02-22T18:01:58;98243.94;;;16.30;60.57
60820;BME280;46641;48.904;9.126;2023-02-22T18:06:48;98241.09;;;16.25;60.46
60820;BME280;46641;48.904;9.126;2023-02-22T18:11:38;98230.09;;;16.22;59.96
60820;BME280;46641;48.904;9.126;2023-02-22T18:16:29;98248.09;;;16.18;60.21
60820;BME280;46641;48.904;9.126;2023-02-22T18:21:20;98242.38;;;16.15;60.30
60820;BME280;46641;48.904;9.126;2023-02-22T18:26:19;98243.13;;;16.08;59.44
60820;BME280;46641;48.904;9.126;2023-02-22T18:31:12;98242.72;;;16.05;59.79
60820;BME280;46641;48.904;9.126;2023-02-22T18:36:06;98237.00;;;16.01;60.06
60820;BME280;46641;48.904;9.126;2023-02-22T18:41:02;98231.28;;;15.98;59.51
60820;BME280;46641;48.904;9.126;2023-02-22T18:45:53;98240.59;;;15.94;59.91
60820;BME280;46641;48.904;9.126;2023-02-22T18:50:44;98228.56;;;15.91;60.25
60820;BME280;46641;48.904;9.126;2023-02-22T18:55:34;98233.41;;;15.87;59.71
60820;BME280;46641;48.904;9.126;2023-02-22T19:00:27;98230.34;;;15.84;60.13
60820;BME280;46641;48.904;9.126;2023-02-22T19:05:17;98242.06;;;15.81;60.24
60820;BME280;46641;48.904;9.126;2023-02-22T19:10:08;98241.44;;;15.79;60.30
60820;BME280;46641;48.904;9.126;2023-02-22T19:14:59;98242.81;;;15.75;59.89
60820;BME280;46641;48.904;9.126;2023-02-22T19:19:49;98242.38;;;15.72;59.81
60820;BME280;46641;48.904;9.126;2023-02-22T19:24:41;98248.03;;;15.69;59.85
60820;BME280;46641;48.904;9.126;2023-02-22T19:29:31;98241.47;;;15.64;59.99
60820;BME280;46641;48.904;9.126;2023-02-22T19:34:21;98249.75;;;15.61;60.05
60820;BME280;46641;48.904;9.126;2023-02-22T19:39:19;98243.84;;;15.59;59.20
60820;BME280;46641;48.904;9.126;2023-02-22T19:44:09;98246.03;;;15.56;59.73
60820;BME280;46641;48.904;9.126;2023-02-22T19:49:00;98242.78;;;15.54;59.63
60820;BME280;46641;48.904;9.126;2023-02-22T19:53:51;98240.50;;;15.51;59.75
60820;BME280;46641;48.904;9.126;2023-02-22T19:58:45;98245.34;;;15.47;59.73
60820;BME280;46641;48.904;9.126;2023-02-22T20:03:36;98246.31;;;15.46;59.51
60820;BME280;46641;48.904;9.126;2023-02-22T20:08:27;98244.41;;;15.40;59.75
60820;BME280;46641;48.904;9.126;2023-02-22T20:13:17;98252.53;;;15.38;59.81
60820;BME280;46641;48.904;9.126;2023-02-22T20:18:08;98255.53;;;15.35;59.88
60820;BME280;46641;48.904;9.126;2023-02-22T20:22:59;98256.72;;;15.33;60.12
60820;BME280;46641;48.904;9.126;2023-02-22T20:27:49;98256.53;;;15.34;60.07
60820;BME280;46641;48.904;9.126;2023-02-22T20:32:39;98255.91;;;15.32;60.01
60820;BME280;46641;48.904;9.126;2023-02-22T20:37:32;98251.81;;;15.30;60.04
60820;BME280;46641;48.904;9.126;2023-02-22T20:42:23;98259.09;;;15.28;60.03
60820;BME280;46641;48.904;9.126;2023-02-22T20:47:13;98262.56;;;15.28;59.96
60820;BME280;46641;48.904;9.126;2023-02-22T20:52:03;98259.28;;;15.26;60.04
60820;BME280;46641;48.904;9.126;2023-02-22T20:56:53;98262.91;;;15.25;60.08
60820;BME280;46641;48.904;9.126;2023-02-22T21:01:45;98261.47;;;15.23;59.98
60820;BME280;46641;48.904;9.126;2023-02-22T21:06:39;98261.00;;;15.19;60.15
60820;BME280;46641;48.904;9.126;2023-02-22T21:11:29;98263.19;;;15.15;60.20
60820;BME280;46641;48.904;9.126;2023-02-22T21:16:30;98261.56;;;15.14;59.82
60820;BME280;46641;48.904;9.126;2023-02-22T21:21:21;98258.44;;;15.11;60.44
60820;BME280;46641;48.904;9.126;2023-02-22T21:26:13;98264.72;;;15.10;60.46
60820;BME280;46641;48.904;9.126;2023-02-22T21:31:05;98245.63;;;15.08;60.36
60820;BME280;46641;48.904;9.126;2023-02-22T21:36:00;98258.19;;;15.06;60.32
60820;BME280;46641;48.904;9.126;2023-02-22T21:40:50;98257.38;;;15.05;60.61
60820;BME280;46641;48.904;9.126;2023-02-22T21:45:46;98259.38;;;15.03;60.54
60820;BME280;46641;48.904;9.126;2023-02-22T21:50:38;98259.72;;;15.00;60.45
60820;BME280;46641;48.904;9.126;2023-02-22T21:55:29;98258.91;;;15.00;60.50
60820;BME280;46641;48.904;9.126;2023-02-22T22:00:19;98260.91;;;14.98;60.69
60820;BME280;46641;48.904;9.126;2023-02-22T22:05:18;98257.66;;;14.95;60.74
60820;BME280;46641;48.904;9.126;2023-02-22T22:10:20;98260.47;;;14.94;60.53
60820;BME280;46641;48.904;9.126;2023-02-22T22:15:16;98253.91;;;14.90;60.68
60820;BME280;46641;48.904;9.126;2023-02-22T22:20:08;98253.91;;;14.90;60.50
60820;BME280;46641;48.904;9.126;2023-02-22T22:25:04;98262.03;;;14.88;60.80
60820;BME280;46641;48.904;9.126;2023-02-22T22:29:54;98253.47;;;14.86;60.88
60820;BME280;46641;48.904;9.126;2023-02-22T22:34:46;98240.47;;;14.85;60.84
60820;BME280;46641;48.904;9.126;2023-02-22T22:39:38;98254.28;;;14.87;60.82
60820;BME280;46641;48.904;9.126;2023-02-22T22:44:28;98254.00;;;14.82;60.75
60820;BME280;46641;48.904;9.126;2023-02-22T22:49:21;98257.84;;;14.79;60.80
60820;BME280;46641;48.904;9.126;2023-02-22T22:54:13;98250.91;;;14.78;60.81
60820;BME280;46641;48.904;9.126;2023-02-22T22:59:05;98260.19;;;14.74;60.83
60820;BME280;46641;48.904;9.126;2023-02-22T23:04:01;98263.81;;;14.73;61.21
60820;BME280;46641;48.904;9.126;2023-02-22T23:08:59;98255.25;;;14.71;60.36
60820;BME280;46641;48.904;9.126;2023-02-22T23:13:50;98252.19;;;14.67;61.14
60820;BME280;46641;48.904;9.126;2023-02-22T23:18:40;98253.81;;;14.68;60.90
60820;BME280;46641;48.904;9.126;2023-02-22T23:23:32;98248.72;;;14.67;60.80
60820;BME280;46641;48.904;9.126;2023-02-22T23:28:22;98258.63;;;14.65;60.90
60820;BME280;46641;48.904;9.126;2023-02-22T23:33:12;98257.16;;;14.62;61.05
60820;BME280;46641;48.904;9.126;2023-02-22T23:38:03;98263.63;;;14.60;61.05
60820;BME280;46641;48.904;9.126;2023-02-22T23:42:56;98262.81;;;14.59;61.02
60820;BME280;46641;48.904;9.126;2023-02-22T23:47:56;98262.16;;;14.57;60.53
60820;BME280;46641;48.904;9.126;2023-02-22T23:52:55;98268.22;;;14.58;60.73
60820;BME280;46641;48.904;9.126;2023-02-22T23:57:46;98263.31;;;14.55;61.18
